createdAt,value
2023-01-26T00:02:17.999Z,82.74
2023-01-26T00:04:46.175Z,82.78
2023-01-26T00:07:14.158Z,82.86
2023-01-26T00:09:42.296Z,82.73
2023-01-26T00:12:10.380Z,82.46
2023-01-26T00:14:51.062Z,82.31
2023-01-26T00:17:26.285Z,82.60
2023-01-26T00:19:55.411Z,82.62
2023-01-26T00:22:24.661Z,82.52
2023-01-26T00:24:56.131Z,82.46
2023-01-26T00:27:24.143Z,82.06
2023-01-26T00:29:52.136Z,81.76
2023-01-26T00:32:21.763Z,81.90
2023-01-26T00:34:50.061Z,82.16
2023-01-26T00:37:18.262Z,81.96
2023-01-26T00:39:46.349Z,82.13
2023-01-26T00:42:16.055Z,82.34
2023-01-26T00:44:44.154Z,82.18
2023-01-26T00:47:12.871Z,81.85
2023-01-26T00:49:41.451Z,81.87
2023-01-26T00:52:09.935Z,81.78
2023-01-26T00:54:37.828Z,81.95
2023-01-26T00:57:05.980Z,82.11
2023-01-26T00:59:34.733Z,82.11
2023-01-26T01:02:02.946Z,82.04
2023-01-26T01:04:31.627Z,82.23
2023-01-26T01:07:01.573Z,82.22
2023-01-26T01:09:30.128Z,82.42
2023-01-26T01:11:58.100Z,82.44
2023-01-26T01:14:26.159Z,82.53
2023-01-26T01:16:54.238Z,82.22
2023-01-26T01:19:22.166Z,82.02
2023-01-26T01:21:50.155Z,81.97
2023-01-26T01:24:18.299Z,82.02
2023-01-26T01:26:46.431Z,82.02
2023-01-26T01:29:15.850Z,82.07
2023-01-26T01:31:44.689Z,82.21
2023-01-26T01:34:12.764Z,82.27
2023-01-26T01:36:41.491Z,81.95
2023-01-26T01:39:09.546Z,81.87
2023-01-26T01:41:37.752Z,81.80
2023-01-26T01:44:17.895Z,81.59
2023-01-26T01:46:49.537Z,81.71
2023-01-26T01:49:33.975Z,81.59
2023-01-26T01:52:18.514Z,81.73
2023-01-26T01:54:49.168Z,81.79
2023-01-26T01:57:28.616Z,81.72
2023-01-26T02:00:04.263Z,81.65
2023-01-26T02:02:41.752Z,81.70
2023-01-26T02:05:43.472Z,81.79
2023-01-26T02:08:13.579Z,81.47
2023-01-26T02:10:43.836Z,81.47
2023-01-26T02:13:11.811Z,81.33
2023-01-26T02:15:43.270Z,81.27
2023-01-26T02:18:11.617Z,81.39
2023-01-26T02:20:42.903Z,81.41
2023-01-26T02:23:13.939Z,81.33
2023-01-26T02:25:54.252Z,81.40
2023-01-26T02:28:26.060Z,81.12
2023-01-26T02:30:54.775Z,80.99
2023-01-26T02:33:25.849Z,80.76
2023-01-26T02:36:02.836Z,80.70
2023-01-26T02:38:39.460Z,80.70
2023-01-26T02:41:12.254Z,80.88
2023-01-26T02:43:43.561Z,80.60
2023-01-26T02:46:11.599Z,80.67
2023-01-26T02:48:58.706Z,80.62
2023-01-26T02:51:26.794Z,80.54
2023-01-26T02:53:54.998Z,80.33
2023-01-26T02:56:27.366Z,80.32
2023-01-26T02:58:56.256Z,80.24
2023-01-26T03:01:24.429Z,80.29
2023-01-26T03:03:52.406Z,80.36
2023-01-26T03:06:21.275Z,80.21
2023-01-26T03:08:49.356Z,80.31
2023-01-26T03:11:17.647Z,80.07
2023-01-26T03:13:45.818Z,79.52
2023-01-26T03:16:18.579Z,79.28
2023-01-26T03:19:04.949Z,79.30
2023-01-26T03:21:52.221Z,79.41
2023-01-26T03:24:38.997Z,79.44
2023-01-26T03:27:28.214Z,79.38
2023-01-26T03:29:59.548Z,79.43
2023-01-26T03:32:31.052Z,79.35
2023-01-26T03:34:59.917Z,79.56
2023-01-26T03:37:27.960Z,79.45
2023-01-26T03:40:20.503Z,79.35
2023-01-26T03:43:07.537Z,79.49
2023-01-26T03:45:55.030Z,79.87
2023-01-26T03:48:42.981Z,80.12
2023-01-26T03:51:30.307Z,80.15
2023-01-26T03:54:18.099Z,79.94
2023-01-26T03:56:46.238Z,80.04
2023-01-26T03:59:16.941Z,79.95
2023-01-26T04:02:05.173Z,79.81
2023-01-26T04:04:54.472Z,79.52
2023-01-26T04:07:46.491Z,79.69
2023-01-26T04:10:15.402Z,79.66
2023-01-26T04:12:51.061Z,79.68
2023-01-26T04:15:39.163Z,79.77
2023-01-26T04:18:26.848Z,80.00
2023-01-26T04:21:15.171Z,80.09
2023-01-26T04:23:45.026Z,80.01
2023-01-26T04:26:13.557Z,79.97
2023-01-26T04:28:42.061Z,80.01
2023-01-26T04:31:10.209Z,80.33
2023-01-26T04:33:39.213Z,80.53
2023-01-26T04:36:08.262Z,80.54
2023-01-26T04:38:38.833Z,80.44
2023-01-26T04:41:07.711Z,80.51
2023-01-26T04:43:42.568Z,80.35
2023-01-26T04:46:11.441Z,80.11
2023-01-26T04:48:40.845Z,80.17
2023-01-26T04:51:13.669Z,80.37
2023-01-26T04:53:41.903Z,80.38
2023-01-26T04:56:22.806Z,80.45
2023-01-26T04:58:52.534Z,80.38
2023-01-26T05:01:20.722Z,80.46
2023-01-26T05:03:49.047Z,80.17
2023-01-26T07:23:34.975Z,87.93
2023-01-26T07:26:03.674Z,86.80
2023-01-26T07:28:31.621Z,86.34
2023-01-26T07:31:00.467Z,86.34
2023-01-26T07:33:29.177Z,86.31
2023-01-26T07:35:57.521Z,86.34
2023-01-26T07:38:26.271Z,86.21
2023-01-26T07:40:54.342Z,85.89
2023-01-26T07:43:22.177Z,85.62
2023-01-26T07:45:53.378Z,85.68
2023-01-26T07:48:23.238Z,86.03
2023-01-26T07:50:51.219Z,85.86
2023-01-26T07:53:19.562Z,85.94
2023-01-26T07:55:47.765Z,85.92
2023-01-26T07:58:15.792Z,85.68
2023-01-26T08:03:58.772Z,86.09
2023-01-26T08:06:26.791Z,86.02
2023-01-26T08:08:55.067Z,85.98
2023-01-26T11:03:42.018Z,68.65
2023-01-26T11:19:12.345Z,64.34
2023-01-26T11:21:55.759Z,62.40
2023-01-26T11:24:29.230Z,61.30
2023-01-26T11:27:34.491Z,61.89
2023-01-26T11:30:27.534Z,62.09
2023-01-26T11:33:26.622Z,62.07
2023-01-26T11:36:01.369Z,63.47
2023-01-26T11:38:35.728Z,64.58
2023-01-26T11:41:22.397Z,65.62
2023-01-26T11:44:15.183Z,66.38
2023-01-26T11:46:56.155Z,67.12
2023-01-26T11:49:48.075Z,67.61
2023-01-26T11:52:29.679Z,67.99
2023-01-26T11:55:03.577Z,68.36
2023-01-26T11:57:43.135Z,68.76
2023-01-26T12:00:29.403Z,69.00
2023-01-26T12:03:02.132Z,69.60
2023-01-26T12:05:35.524Z,70.01
2023-01-26T12:08:05.297Z,70.41
2023-01-26T12:10:36.752Z,70.45
2023-01-26T12:13:06.702Z,70.50
2023-01-26T12:15:37.498Z,70.40
2023-01-26T12:18:09.265Z,70.03
2023-01-26T12:21:22.784Z,70.34
2023-01-26T12:23:58.540Z,70.84
2023-01-26T12:26:26.507Z,71.23
2023-01-26T12:29:09.303Z,71.57
2023-01-26T12:32:08.495Z,71.55
2023-01-26T12:34:36.541Z,71.44
2023-01-26T12:37:31.210Z,71.74
2023-01-26T12:40:33.486Z,71.70
2023-01-26T12:43:32.745Z,71.55
2023-01-26T12:46:01.162Z,71.72
2023-01-26T12:48:36.018Z,71.58
2023-01-26T12:51:11.438Z,71.73
2023-01-26T12:53:44.212Z,71.79
2023-01-26T12:56:41.056Z,71.31
2023-01-26T12:59:47.055Z,71.38
2023-01-26T13:02:25.288Z,71.72
2023-01-26T13:04:53.210Z,71.95
2023-01-26T13:07:32.206Z,72.07
2023-01-26T13:10:16.234Z,72.59
2023-01-26T13:13:01.849Z,72.85
2023-01-26T13:15:31.472Z,73.08
2023-01-26T13:18:01.242Z,73.57
2023-01-26T13:20:43.302Z,73.72
2023-01-26T13:23:37.245Z,73.58
2023-01-26T13:26:24.061Z,73.83
2023-01-26T13:28:52.522Z,74.20
2023-01-26T13:31:32.251Z,74.65
2023-01-26T13:34:02.596Z,74.88
2023-01-26T13:36:35.200Z,74.94
2023-01-26T13:39:13.171Z,75.38
2023-01-26T13:41:47.544Z,75.37
2023-01-26T13:44:18.762Z,75.17
2023-01-26T13:47:20.932Z,75.56
2023-01-26T13:49:50.739Z,75.46
2023-01-26T13:52:23.221Z,75.46
2023-01-26T13:54:53.076Z,75.27
2023-01-26T13:57:29.100Z,75.59
2023-01-26T14:00:01.752Z,75.84
2023-01-26T14:02:38.993Z,76.13
2023-01-26T14:05:08.606Z,76.43
2023-01-26T14:07:43.672Z,76.76
2023-01-26T14:10:17.022Z,76.62
2023-01-26T14:12:55.938Z,76.96
2023-01-26T14:15:29.306Z,77.28
2023-01-26T14:18:02.494Z,77.60
2023-01-26T14:20:32.092Z,77.85
2023-01-26T14:23:18.887Z,78.01
2023-01-26T14:26:18.933Z,78.09
2023-01-26T14:28:47.210Z,78.27
2023-01-26T14:31:25.501Z,78.35
2023-01-26T14:33:57.724Z,78.52
2023-01-26T14:36:28.530Z,78.79
2023-01-26T14:38:56.713Z,79.09
2023-01-26T14:41:30.012Z,79.15
2023-01-26T14:44:01.902Z,79.12
2023-01-26T14:46:54.798Z,79.01
2023-01-26T14:49:54.523Z,79.34
2023-01-26T14:52:25.137Z,79.63
2023-01-26T14:54:58.054Z,79.90
2023-01-26T14:57:27.350Z,79.89
2023-01-26T14:59:57.766Z,80.15
2023-01-26T15:02:42.527Z,80.19
2023-01-26T15:05:13.398Z,80.07
2023-01-26T15:07:43.271Z,80.24
2023-01-26T15:10:30.400Z,80.44
2023-01-26T15:13:11.368Z,80.53
2023-01-26T15:16:01.184Z,80.42
2023-01-26T15:18:33.321Z,80.75
2023-01-26T15:21:20.737Z,80.62
2023-01-26T15:23:52.400Z,80.55
2023-01-26T15:26:26.836Z,80.89
2023-01-26T15:28:56.091Z,80.86
2023-01-26T15:31:35.179Z,81.06
2023-01-26T15:34:05.092Z,81.19
2023-01-26T15:36:50.068Z,81.09
2023-01-26T15:39:21.399Z,81.06
2023-01-26T15:42:15.569Z,81.17
2023-01-26T15:44:43.648Z,81.63
2023-01-26T15:47:13.602Z,81.80
2023-01-26T15:49:42.942Z,82.11
2023-01-26T15:52:21.769Z,82.28
2023-01-26T15:54:51.935Z,82.70
2023-01-26T15:57:19.981Z,82.87
2023-01-26T15:59:48.452Z,83.22
2023-01-26T16:02:19.307Z,83.62
2023-01-26T16:04:47.470Z,83.72
2023-01-26T16:07:17.205Z,83.91
2023-01-26T16:09:45.656Z,84.16
2023-01-26T16:12:33.254Z,84.45
2023-01-26T16:15:02.693Z,84.78
2023-01-26T16:17:31.269Z,84.87
2023-01-26T16:20:00.466Z,84.79
2023-01-26T16:22:28.744Z,85.09
2023-01-26T16:24:56.688Z,85.35
2023-01-26T16:27:25.044Z,85.48
2023-01-26T16:29:53.573Z,85.55
2023-01-26T16:32:28.436Z,85.55
2023-01-26T16:34:56.483Z,85.37
2023-01-26T16:37:24.758Z,85.52
2023-01-26T16:39:52.828Z,85.45
2023-01-26T16:42:22.361Z,85.47
2023-01-26T16:44:50.723Z,85.42
2023-01-26T16:47:18.860Z,85.21
2023-01-26T16:49:50.328Z,85.31
2023-01-26T16:52:18.391Z,85.45
2023-01-26T16:54:48.414Z,85.37
2023-01-26T16:57:17.150Z,85.42
2023-01-26T16:59:45.353Z,85.18
2023-01-26T17:02:24.152Z,85.31
2023-01-26T17:04:52.288Z,85.00
2023-01-26T17:07:20.435Z,85.26
2023-01-26T17:09:48.417Z,85.23
2023-01-26T17:12:16.576Z,85.36
2023-01-26T17:14:44.571Z,85.63
2023-01-26T17:17:13.029Z,85.74
2023-01-26T17:19:41.096Z,86.01
2023-01-26T17:22:09.286Z,85.91
2023-01-26T17:24:37.235Z,85.82
2023-01-26T17:27:05.659Z,86.15
2023-01-26T17:29:34.061Z,86.11
2023-01-26T17:32:02.628Z,86.32
2023-01-26T17:34:30.779Z,86.14
2023-01-26T17:37:00.259Z,86.01
2023-01-26T17:39:28.337Z,86.21
2023-01-26T17:41:56.654Z,86.51
2023-01-26T17:44:24.882Z,86.52
2023-01-26T17:46:53.581Z,86.26
2023-01-26T17:49:22.416Z,86.45
2023-01-26T17:51:50.845Z,86.46
2023-01-26T17:54:19.329Z,86.46
2023-01-26T17:56:47.396Z,86.31
2023-01-26T17:59:15.569Z,85.96
2023-01-26T18:01:43.644Z,85.57
2023-01-26T18:04:11.620Z,85.89
2023-01-26T18:06:39.627Z,85.89
2023-01-26T18:09:08.201Z,85.80
2023-01-26T18:11:36.293Z,85.85
2023-01-26T18:14:04.658Z,85.78
2023-01-26T18:16:33.829Z,86.04
2023-01-26T18:19:04.637Z,86.47
2023-01-26T18:21:36.095Z,86.80
2023-01-26T18:24:05.415Z,86.60
2023-01-26T18:26:35.763Z,86.24
2023-01-26T18:29:04.924Z,86.56
2023-01-26T18:31:37.710Z,86.69
2023-01-26T18:34:06.201Z,86.83
2023-01-26T18:36:34.785Z,86.78
2023-01-26T18:39:05.654Z,86.49
2023-01-26T18:41:35.975Z,86.25
2023-01-26T18:44:04.307Z,86.08
2023-01-26T18:46:32.309Z,86.30
2023-01-26T18:49:01.485Z,86.20
2023-01-26T18:51:34.898Z,86.01
2023-01-26T18:54:04.476Z,85.41
2023-01-26T18:56:33.905Z,85.38
2023-01-26T18:59:02.166Z,85.47
2023-01-26T19:01:31.082Z,85.38
2023-01-26T19:04:02.289Z,85.47
2023-01-26T19:06:32.720Z,85.47
2023-01-26T19:09:05.772Z,85.07
2023-01-26T19:11:37.716Z,85.02
2023-01-26T19:14:07.271Z,85.19
2023-01-26T19:16:36.625Z,85.23
2023-01-26T19:19:05.414Z,85.21
2023-01-26T19:21:34.095Z,85.00
2023-01-26T19:24:06.513Z,84.58
2023-01-26T19:26:35.006Z,84.44
2023-01-26T19:29:04.116Z,84.47
2023-01-26T19:31:32.960Z,84.62
2023-01-26T19:34:02.794Z,84.50
2023-01-26T19:36:32.241Z,84.13
2023-01-26T19:39:01.609Z,83.75
2023-01-26T19:41:29.995Z,83.45
2023-01-26T19:43:58.076Z,83.39
2023-01-26T19:46:26.880Z,83.26
2023-01-26T19:48:55.147Z,83.39
2023-01-26T19:51:25.148Z,83.48
2023-01-26T19:53:58.241Z,83.37
2023-01-26T19:56:30.827Z,82.88
2023-01-26T19:59:00.578Z,82.88
2023-01-26T20:01:33.225Z,83.21
2023-01-26T20:04:03.724Z,83.36
2023-01-26T20:06:33.393Z,83.38
2023-01-26T20:09:03.601Z,83.49
2023-01-26T20:11:32.238Z,82.98
2023-01-26T20:14:06.296Z,82.88
2023-01-26T20:16:35.405Z,82.85
2023-01-26T20:19:05.472Z,83.14
2023-01-26T20:21:34.354Z,83.26
2023-01-26T20:24:06.033Z,83.07
2023-01-26T20:26:35.580Z,82.94
2023-01-26T20:29:04.830Z,82.86
2023-01-26T20:31:33.719Z,83.03
2023-01-26T20:34:02.673Z,83.13
2023-01-26T20:36:32.004Z,83.30
2023-01-26T20:39:00.580Z,83.19
2023-01-26T20:41:32.454Z,83.08
2023-01-26T20:44:02.958Z,83.00
2023-01-26T20:46:39.204Z,83.12
2023-01-26T20:49:08.821Z,83.23
2023-01-26T20:51:38.364Z,83.11
2023-01-26T20:54:07.849Z,83.02
2023-01-26T20:56:36.645Z,82.98
2023-01-26T20:59:07.573Z,82.99
2023-01-26T21:01:36.686Z,83.26
2023-01-26T21:04:05.295Z,83.26
2023-01-26T21:06:33.983Z,83.24
2023-01-26T21:09:02.291Z,82.97
2023-01-26T21:11:31.636Z,83.07
2023-01-26T21:14:03.101Z,83.27
2023-01-26T21:16:32.232Z,83.45
2023-01-26T21:19:00.224Z,83.30
2023-01-26T21:21:28.631Z,82.99
2023-01-26T21:23:56.820Z,82.92
2023-01-26T21:26:25.724Z,83.00
2023-01-26T21:28:55.962Z,83.20
2023-01-26T21:31:27.613Z,83.25
2023-01-26T21:33:55.733Z,83.22
2023-01-26T21:36:25.655Z,83.08
2023-01-26T21:38:57.000Z,83.07
2023-01-26T21:41:46.391Z,83.16
2023-01-26T21:44:16.317Z,83.09
2023-01-26T21:46:45.533Z,83.26
2023-01-26T21:49:13.773Z,83.06
2023-01-26T21:52:03.266Z,83.23
2023-01-26T21:54:31.929Z,82.82
2023-01-26T21:57:00.721Z,82.79
2023-01-26T21:59:32.362Z,82.96
2023-01-26T22:02:00.948Z,83.14
2023-01-26T22:04:30.558Z,83.07
2023-01-26T22:06:59.846Z,83.09
2023-01-26T22:09:28.473Z,83.26
2023-01-26T22:11:56.884Z,83.09
2023-01-26T22:14:26.432Z,83.19
2023-01-26T22:16:55.291Z,83.08
2023-01-26T22:19:23.388Z,83.25
2023-01-26T22:21:51.625Z,83.12
2023-01-26T22:24:20.104Z,83.04
2023-01-26T22:26:49.041Z,82.95
2023-01-26T22:29:17.041Z,82.94
2023-01-26T22:31:45.943Z,82.91
2023-01-26T22:34:14.388Z,83.12
2023-01-26T22:36:43.041Z,83.26
2023-01-26T22:39:12.474Z,83.31
2023-01-26T22:41:41.113Z,83.20
2023-01-26T22:44:09.490Z,83.02
2023-01-26T22:46:37.699Z,82.87
2023-01-26T22:49:06.281Z,82.90
2023-01-26T22:51:37.613Z,83.04
2023-01-26T22:54:06.045Z,83.19
2023-01-26T22:56:35.304Z,83.27
2023-01-26T22:59:03.610Z,83.44
2023-01-26T23:01:34.051Z,83.26
2023-01-26T23:04:02.900Z,82.91
2023-01-26T23:06:31.276Z,82.83
2023-01-26T23:09:01.301Z,82.99
2023-01-26T23:11:30.698Z,82.84
2023-01-26T23:13:58.956Z,82.82
2023-01-26T23:16:27.435Z,82.74
2023-01-26T23:18:57.200Z,82.65
2023-01-26T23:21:26.789Z,82.60
2023-01-26T23:26:48.100Z,82.91
2023-01-26T23:29:16.341Z,83.12
2023-01-26T23:31:45.180Z,83.27
2023-01-26T23:34:13.280Z,82.97
2023-01-26T23:36:41.446Z,82.87
2023-01-26T23:39:09.702Z,83.11
2023-01-26T23:41:37.860Z,83.05
2023-01-26T23:44:05.900Z,83.29
2023-01-26T23:46:36.250Z,83.38
2023-01-26T23:49:04.283Z,83.34
2023-01-26T23:51:32.668Z,83.23
2023-01-26T23:54:00.917Z,82.98
2023-01-26T23:56:29.642Z,82.99
2023-01-26T23:58:57.974Z,82.93
